createdAt,value
2018-05-06T00:00:00.426Z,2.03
2018-05-06T00:01:02.938Z,1.93
2018-05-06T00:02:05.425Z,1.87
2018-05-06T00:03:07.909Z,2.20
2018-05-06T00:04:10.392Z,1.90
2018-05-06T00:05:12.881Z,2.40
2018-05-06T00:06:15.398Z,2.20
2018-05-06T00:07:17.865Z,1.93
2018-05-06T00:08:20.334Z,2.07
2018-05-06T00:09:22.817Z,1.63
2018-05-06T00:10:25.309Z,1.80
2018-05-06T00:11:27.832Z,1.70
2018-05-06T00:12:30.322Z,2.00
2018-05-06T00:13:32.805Z,1.83
2018-05-06T00:14:35.294Z,1.97
2018-05-06T00:15:37.786Z,1.93
2018-05-06T00:16:40.293Z,1.83
2018-05-06T00:17:42.803Z,2.17
2018-05-06T00:18:45.274Z,2.03
2018-05-06T00:19:47.783Z,2.00
2018-05-06T00:20:50.265Z,2.13
2018-05-06T00:21:52.780Z,1.80
2018-05-06T00:22:55.272Z,1.70
2018-05-06T00:23:57.756Z,1.80
2018-05-06T00:25:00.238Z,2.00
2018-05-06T00:26:02.724Z,1.70
2018-05-06T00:27:05.224Z,1.60
2018-05-06T00:28:07.751Z,2.00
2018-05-06T00:29:10.310Z,1.70
2018-05-06T00:30:12.870Z,1.73
2018-05-06T00:31:15.342Z,1.93
2018-05-06T00:32:17.888Z,1.83
2018-05-06T00:33:20.395Z,2.03
2018-05-06T00:34:22.907Z,2.50
2018-05-06T00:35:25.394Z,2.30
2018-05-06T00:36:29.047Z,1.93
2018-05-06T00:37:31.580Z,1.90
2018-05-06T00:38:34.168Z,1.97
2018-05-06T00:39:36.663Z,2.00
2018-05-06T00:40:39.153Z,2.00
2018-05-06T00:41:41.642Z,1.83
2018-05-06T00:42:44.157Z,1.70
2018-05-06T00:43:46.661Z,1.63
2018-05-06T00:44:49.147Z,2.00
2018-05-06T00:45:51.629Z,2.03
2018-05-06T00:46:54.116Z,2.00
2018-05-06T00:47:56.700Z,1.97
2018-05-06T00:48:59.259Z,2.00
2018-05-06T00:50:01.749Z,1.60
2018-05-06T00:51:04.277Z,1.80
2018-05-06T00:52:06.760Z,1.87
2018-05-06T00:53:09.289Z,1.90
2018-05-06T00:54:23.734Z,1.77
2018-05-06T00:55:26.220Z,2.00
2018-05-06T00:56:28.725Z,2.00
2018-05-06T00:57:31.289Z,2.07
2018-05-06T00:58:33.806Z,1.80
2018-05-06T00:59:36.295Z,1.73
2018-05-06T01:00:38.864Z,1.80
2018-05-06T01:01:41.356Z,1.73
2018-05-06T01:02:43.864Z,1.87
2018-05-06T01:03:46.391Z,1.87
2018-05-06T01:04:48.881Z,1.53
2018-05-06T01:05:51.381Z,2.07
2018-05-06T01:06:53.876Z,1.90
2018-05-06T01:07:56.405Z,2.20
2018-05-06T01:08:58.967Z,1.53
2018-05-06T01:10:01.531Z,1.73
2018-05-06T01:11:04.051Z,2.00
2018-05-06T01:12:06.642Z,1.60
2018-05-06T01:13:09.206Z,2.10
2018-05-06T01:14:11.769Z,2.13
2018-05-06T01:15:14.261Z,1.63
2018-05-06T01:16:16.747Z,2.20
2018-05-06T01:17:19.256Z,1.70
2018-05-06T01:18:21.897Z,1.50
2018-05-06T01:19:24.431Z,1.67
2018-05-06T01:20:26.904Z,1.90
2018-05-06T01:21:29.392Z,2.30
2018-05-06T01:22:31.881Z,1.97
2018-05-06T01:23:34.371Z,1.73
2018-05-06T01:24:36.876Z,1.70
2018-05-06T01:25:39.365Z,2.00
2018-05-06T01:26:41.862Z,2.07
2018-05-06T01:27:44.349Z,1.80
2018-05-06T01:28:46.855Z,1.77
2018-05-06T01:29:49.354Z,1.80
2018-05-06T01:30:51.845Z,1.50
2018-05-06T01:31:54.323Z,1.80
2018-05-06T01:32:56.794Z,1.67
2018-05-06T01:33:59.277Z,1.50
2018-05-06T01:35:01.770Z,1.63
2018-05-06T01:36:04.271Z,1.93
2018-05-06T01:37:06.747Z,1.80
2018-05-06T01:38:09.237Z,1.50
2018-05-06T01:39:12.513Z,1.80
2018-05-06T01:40:15.055Z,1.70
2018-05-06T01:41:17.528Z,1.67
2018-05-06T01:42:20.075Z,1.63
2018-05-06T01:43:22.631Z,1.50
2018-05-06T01:44:25.190Z,1.37
2018-05-06T01:45:27.704Z,1.30
2018-05-06T01:46:30.192Z,1.97
2018-05-06T01:47:32.771Z,1.80
2018-05-06T01:48:35.330Z,1.70
2018-05-06T01:49:37.889Z,1.57
2018-05-06T01:50:40.451Z,1.90
2018-05-06T01:51:42.924Z,1.60
2018-05-06T01:52:45.407Z,1.50
2018-05-06T01:53:47.892Z,1.57
2018-05-06T01:54:50.380Z,1.60
2018-05-06T01:55:52.870Z,1.70
2018-05-06T01:56:55.342Z,1.47
2018-05-06T01:57:57.843Z,1.97
2018-05-06T01:59:00.337Z,1.80
2018-05-06T02:00:02.812Z,1.93
2018-05-06T02:01:05.314Z,1.60
2018-05-06T02:02:07.858Z,1.77
2018-05-06T02:03:10.359Z,1.90
2018-05-06T02:04:12.836Z,1.60
2018-05-06T02:05:15.323Z,1.50
2018-05-06T02:06:17.831Z,1.57
2018-05-06T02:07:20.319Z,1.43
2018-05-06T02:08:22.808Z,1.60
2018-05-06T02:09:25.320Z,1.80
2018-05-06T02:10:27.795Z,1.47
2018-05-06T02:11:30.304Z,1.50
2018-05-06T02:12:32.794Z,1.40
2018-05-06T02:13:35.281Z,1.40
2018-05-06T02:14:37.766Z,1.60
2018-05-06T02:15:40.261Z,1.53
2018-05-06T02:16:42.759Z,1.40
2018-05-06T02:17:45.263Z,1.93
2018-05-06T02:18:47.767Z,1.50
2018-05-06T02:19:50.234Z,1.67
2018-05-06T02:20:52.736Z,1.60
2018-05-06T02:21:55.259Z,1.40
2018-05-06T02:22:57.763Z,1.50
2018-05-06T02:24:00.254Z,1.97
2018-05-06T02:25:02.755Z,1.60
2018-05-06T02:26:05.268Z,1.73
2018-05-06T02:27:07.784Z,1.43
2018-05-06T02:28:10.263Z,2.20
2018-05-06T02:29:12.731Z,1.43
2018-05-06T02:30:15.261Z,1.30
2018-05-06T02:31:17.762Z,1.33
2018-05-06T02:32:20.255Z,1.90
2018-05-06T02:33:22.760Z,1.63
2018-05-06T02:34:25.279Z,1.73
2018-05-06T02:35:27.857Z,1.67
2018-05-06T02:36:30.361Z,1.80
2018-05-06T02:37:32.921Z,1.43
2018-05-06T02:38:35.408Z,1.83
2018-05-06T02:39:37.893Z,1.60
2018-05-06T02:40:40.401Z,1.40
2018-05-06T02:41:42.959Z,1.93
2018-05-06T02:42:45.442Z,1.77
2018-05-06T02:43:47.941Z,1.50
2018-05-06T02:44:50.531Z,2.10
2018-05-06T02:45:53.025Z,1.30
2018-05-06T02:46:55.554Z,1.53
2018-05-06T02:47:58.040Z,1.60
2018-05-06T02:49:00.571Z,1.70
2018-05-06T02:50:03.130Z,1.20
2018-05-06T02:51:05.629Z,1.80
2018-05-06T02:52:08.148Z,1.50
2018-05-06T02:53:10.667Z,1.60
2018-05-06T02:54:13.166Z,1.57
2018-05-06T02:55:15.726Z,1.37
2018-05-06T02:56:18.213Z,1.40
2018-05-06T02:57:20.700Z,1.40
2018-05-06T02:58:23.221Z,1.63
2018-05-06T02:59:25.766Z,1.40
2018-05-06T03:00:28.322Z,1.70
2018-05-06T03:01:30.883Z,1.80
2018-05-06T03:02:33.362Z,1.23
2018-05-06T03:03:35.845Z,1.43
2018-05-06T03:04:38.348Z,1.40
2018-05-06T03:05:40.858Z,1.50
2018-05-06T03:06:43.360Z,1.43
2018-05-06T03:07:45.936Z,1.60
2018-05-06T03:08:48.433Z,1.50
2018-05-06T03:09:50.950Z,1.40
2018-05-06T03:10:53.451Z,1.17
2018-05-06T03:11:55.941Z,1.70
2018-05-06T03:12:58.433Z,1.73
2018-05-06T03:14:00.988Z,1.37
2018-05-06T03:15:03.551Z,1.77
2018-05-06T03:16:06.110Z,1.43
2018-05-06T03:17:08.671Z,1.47
2018-05-06T03:18:11.171Z,1.37
2018-05-06T03:19:13.661Z,1.40
2018-05-06T03:20:16.148Z,1.30
2018-05-06T03:21:18.618Z,1.60
2018-05-06T03:22:21.101Z,1.50
2018-05-06T03:23:23.723Z,1.60
2018-05-06T03:24:26.282Z,1.43
2018-05-06T03:25:28.845Z,1.30
2018-05-06T03:26:31.357Z,1.50
2018-05-06T03:27:33.858Z,1.40
2018-05-06T03:28:36.424Z,1.57
2018-05-06T03:29:38.925Z,1.20
2018-05-06T03:30:41.428Z,1.40
2018-05-06T03:31:43.932Z,1.67
2018-05-06T03:32:46.421Z,1.37
2018-05-06T03:33:48.912Z,1.20
2018-05-06T03:34:51.406Z,1.50
2018-05-06T03:35:53.930Z,1.40
2018-05-06T03:36:56.439Z,1.40
2018-05-06T03:37:58.984Z,1.53
2018-05-06T03:39:01.499Z,1.20
2018-05-06T03:40:04.010Z,1.30
2018-05-06T03:41:06.505Z,1.30
2018-05-06T03:42:08.989Z,1.20
2018-05-06T03:43:11.495Z,1.47
2018-05-06T03:44:13.971Z,1.40
2018-05-06T03:45:16.476Z,1.73
2018-05-06T03:46:18.947Z,1.33
2018-05-06T03:47:21.414Z,1.50
2018-05-06T03:48:23.915Z,1.40
2018-05-06T03:49:26.416Z,1.23
2018-05-06T03:50:28.906Z,1.83
2018-05-06T03:51:31.378Z,1.10
2018-05-06T03:52:33.853Z,1.40
2018-05-06T03:53:36.341Z,1.40
2018-05-06T03:54:38.814Z,1.57
2018-05-06T03:55:41.321Z,1.10
2018-05-06T03:57:04.556Z,1.40
2018-05-06T03:58:18.807Z,1.23
2018-05-06T04:01:01.221Z,1.40
2018-05-06T04:03:51.677Z,1.50
2018-05-06T04:04:54.187Z,1.40
2018-05-06T04:05:56.706Z,1.30
2018-05-06T04:06:59.227Z,1.30
2018-05-06T04:08:01.732Z,1.70
2018-05-06T04:09:04.229Z,1.63
2018-05-06T04:10:06.712Z,1.20
2018-05-06T04:11:09.208Z,1.30
2018-05-06T04:12:11.714Z,1.50
2018-05-06T04:13:14.186Z,1.37
2018-05-06T04:14:16.686Z,1.47
2018-05-06T04:15:19.184Z,1.30
2018-05-06T04:16:21.703Z,1.20
2018-05-06T04:17:24.191Z,1.30
2018-05-06T04:18:26.681Z,1.17
2018-05-06T04:19:29.231Z,1.53
2018-05-06T04:20:31.725Z,1.20
2018-05-06T04:21:34.227Z,1.43
2018-05-06T04:22:36.738Z,1.40
2018-05-06T04:23:39.229Z,1.60
2018-05-06T04:24:41.698Z,1.33
2018-05-06T04:25:44.166Z,1.60
2018-05-06T04:26:46.729Z,1.37
2018-05-06T04:27:49.192Z,1.20
2018-05-06T04:28:51.695Z,1.37
2018-05-06T04:29:54.209Z,1.50
2018-05-06T04:30:56.696Z,1.63
2018-05-06T04:31:59.164Z,1.53
2018-05-06T04:33:01.662Z,1.47
2018-05-06T04:34:04.153Z,1.30
2018-05-06T04:35:06.670Z,1.20
2018-05-06T04:36:09.149Z,1.63
2018-05-06T04:37:11.658Z,1.43
2018-05-06T04:38:14.126Z,1.40
2018-05-06T04:39:16.619Z,1.37
2018-05-06T04:40:19.138Z,1.40
2018-05-06T04:41:21.614Z,1.80
2018-05-06T04:42:24.131Z,1.50
2018-05-06T04:43:26.617Z,1.17
2018-05-06T04:44:29.110Z,1.50
2018-05-06T04:45:31.600Z,1.30
2018-05-06T04:46:34.085Z,1.23
2018-05-06T04:47:36.593Z,1.20
2018-05-06T04:48:39.081Z,1.40
2018-05-06T04:49:41.568Z,1.37
2018-05-06T04:50:44.067Z,1.10
2018-05-06T04:51:46.565Z,1.40
2018-05-06T04:52:49.074Z,1.33
2018-05-06T04:53:51.550Z,1.07
2018-05-06T04:54:54.018Z,1.47
2018-05-06T04:55:56.490Z,1.20
2018-05-06T04:56:59.000Z,2.00
2018-05-06T04:58:01.489Z,1.23
2018-05-06T04:59:04.000Z,1.30
2018-05-06T05:00:06.507Z,1.30
2018-05-06T05:01:08.996Z,1.60
2018-05-06T05:02:11.528Z,1.67
2018-05-06T05:03:14.015Z,1.20
2018-05-06T05:04:16.508Z,1.30
2018-05-06T05:05:18.976Z,1.23
2018-05-06T05:06:21.480Z,1.50
2018-05-06T05:07:23.950Z,1.20
2018-05-06T05:08:26.466Z,1.43
2018-05-06T05:09:29.014Z,1.33
2018-05-06T05:10:31.445Z,1.40
2018-05-06T05:11:33.963Z,1.10
2018-05-06T05:12:36.463Z,1.10
2018-05-06T05:13:38.935Z,1.60
2018-05-06T05:14:41.417Z,1.23
2018-05-06T05:15:43.903Z,1.60
2018-05-06T05:16:46.410Z,1.33
2018-05-06T05:17:48.887Z,1.20
2018-05-06T05:18:51.367Z,1.20
2018-05-06T05:19:53.850Z,1.17
2018-05-06T05:20:56.449Z,1.30
2018-05-06T05:21:58.881Z,1.20
2018-05-06T05:23:01.388Z,1.27
2018-05-06T05:24:03.863Z,1.43
2018-05-06T05:25:06.345Z,1.30
2018-05-06T05:26:08.848Z,1.53
2018-05-06T05:27:11.357Z,1.30
2018-05-06T05:28:13.833Z,1.40
2018-05-06T05:29:16.301Z,1.17
2018-05-06T05:30:18.807Z,1.23
2018-05-06T05:31:21.310Z,1.20
2018-05-06T05:32:23.786Z,1.60
2018-05-06T05:33:26.290Z,0.93
2018-05-06T05:34:28.810Z,1.20
2018-05-06T05:35:31.311Z,1.20
2018-05-06T05:36:33.801Z,0.97
2018-05-06T05:37:36.292Z,1.23
2018-05-06T05:38:38.781Z,1.10
2018-05-06T05:39:41.250Z,1.23
2018-05-06T05:40:43.757Z,1.10
2018-05-06T05:41:46.258Z,1.60
2018-05-06T05:42:48.748Z,1.70
2018-05-06T05:43:51.247Z,1.20
2018-05-06T05:44:53.728Z,1.40
2018-05-06T05:45:56.276Z,1.43
2018-05-06T05:46:58.754Z,1.13
2018-05-06T05:48:01.222Z,1.20
2018-05-06T05:49:03.721Z,1.30
2018-05-06T05:50:06.230Z,1.40
2018-05-06T05:51:08.720Z,1.43
2018-05-06T05:52:11.194Z,1.10
2018-05-06T05:53:13.704Z,1.33
2018-05-06T05:54:16.208Z,1.20
2018-05-06T05:55:18.716Z,1.50
2018-05-06T05:56:21.213Z,1.40
2018-05-06T05:57:23.686Z,1.30
2018-05-06T05:58:26.257Z,1.20
2018-05-06T05:59:28.771Z,1.17
2018-05-06T06:00:31.298Z,1.30
2018-05-06T06:01:33.871Z,1.10
2018-05-06T06:02:36.296Z,1.03
2018-05-06T06:03:38.784Z,1.10
2018-05-06T06:04:41.289Z,1.00
2018-05-06T06:05:43.776Z,1.40
2018-05-06T06:06:46.257Z,1.30
2018-05-06T06:07:48.776Z,1.27
2018-05-06T06:08:51.260Z,1.30
2018-05-06T06:09:53.781Z,1.27
2018-05-06T06:10:56.271Z,1.30
2018-05-06T06:11:58.758Z,1.20
2018-05-06T06:13:01.266Z,1.70
2018-05-06T06:14:03.827Z,1.07
2018-05-06T06:15:06.329Z,1.40
2018-05-06T06:16:08.837Z,1.00
2018-05-06T06:17:11.341Z,1.30
2018-05-06T06:18:13.863Z,1.20
2018-05-06T06:19:16.393Z,1.23
2018-05-06T06:20:18.877Z,1.00
2018-05-06T06:21:21.366Z,1.30
2018-05-06T06:22:23.861Z,1.60
2018-05-06T06:23:26.363Z,1.00
2018-05-06T06:24:28.929Z,1.13
2018-05-06T06:25:31.397Z,1.20
2018-05-06T06:26:33.884Z,1.30
2018-05-06T06:27:36.367Z,1.43
2018-05-06T06:28:38.853Z,1.40
2018-05-06T06:29:41.358Z,1.30
2018-05-06T06:30:43.865Z,1.30
2018-05-06T06:31:46.363Z,1.20
2018-05-06T06:32:48.848Z,1.40
2018-05-06T06:33:51.369Z,1.47
2018-05-06T06:34:53.854Z,1.30
2018-05-06T06:35:56.341Z,1.60
2018-05-06T06:36:58.846Z,1.13
2018-05-06T06:38:01.342Z,1.07
2018-05-06T06:39:03.844Z,1.10
2018-05-06T06:40:06.341Z,1.10
2018-05-06T06:41:08.830Z,1.03
2018-05-06T06:42:11.309Z,1.10
2018-05-06T06:43:13.782Z,1.20
2018-05-06T06:44:16.280Z,1.03
2018-05-06T06:45:18.777Z,1.17
2018-05-06T06:46:21.279Z,1.10
2018-05-06T06:47:23.758Z,1.20
2018-05-06T06:48:26.261Z,1.20
2018-05-06T06:49:28.825Z,1.20
2018-05-06T06:50:31.386Z,1.20
2018-05-06T06:51:33.863Z,1.10
2018-05-06T06:52:36.401Z,1.27
2018-05-06T06:53:38.962Z,1.17
2018-05-06T06:54:41.457Z,1.27
2018-05-06T06:55:44.005Z,1.10
2018-05-06T06:56:46.485Z,1.07
2018-05-06T06:57:48.987Z,1.50
2018-05-06T06:58:51.474Z,1.73
2018-05-06T06:59:53.971Z,1.73
2018-05-06T07:00:56.461Z,1.30
2018-05-06T07:01:58.963Z,1.20
2018-05-06T07:03:01.472Z,1.20
2018-05-06T07:04:03.951Z,1.33
2018-05-06T07:05:06.485Z,1.13
2018-05-06T07:06:08.998Z,0.90
2018-05-06T07:07:11.529Z,1.27
2018-05-06T07:08:14.039Z,1.73
2018-05-06T07:09:16.529Z,1.30
2018-05-06T07:10:19.014Z,1.43
2018-05-06T07:11:21.546Z,1.30
2018-05-06T07:12:24.021Z,1.50
2018-05-06T07:13:26.579Z,1.73
2018-05-06T07:14:29.088Z,2.20
2018-05-06T07:15:31.701Z,2.10
2018-05-06T07:16:34.174Z,2.17
2018-05-06T07:17:36.673Z,1.97
2018-05-06T07:18:39.243Z,2.00
2018-05-06T07:19:41.801Z,2.13
2018-05-06T07:20:44.290Z,2.33
2018-05-06T07:21:46.795Z,2.13
2018-05-06T07:22:49.297Z,2.53
2018-05-06T07:23:51.825Z,2.00
2018-05-06T07:24:54.328Z,2.80
2018-05-06T07:25:56.845Z,2.70
2018-05-06T07:26:59.326Z,2.53
2018-05-06T07:28:01.874Z,2.33
2018-05-06T07:29:04.368Z,2.23
2018-05-06T07:30:06.857Z,2.27
2018-05-06T07:31:09.344Z,2.23
2018-05-06T07:32:11.860Z,1.70
2018-05-06T07:33:14.352Z,2.30
2018-05-06T07:34:16.822Z,2.13
2018-05-06T07:35:19.324Z,2.73
2018-05-06T07:36:21.804Z,1.90
2018-05-06T07:37:24.305Z,2.00
2018-05-06T07:38:26.811Z,2.10
2018-05-06T07:39:29.301Z,1.90
2018-05-06T07:40:31.809Z,1.70
2018-05-06T07:41:34.449Z,2.93
2018-05-06T07:42:36.964Z,2.40
2018-05-06T07:43:39.456Z,2.50
2018-05-06T07:44:41.941Z,1.90
2018-05-06T07:45:44.507Z,2.40
2018-05-06T07:46:47.012Z,2.20
2018-05-06T07:47:49.492Z,2.17
2018-05-06T07:48:52.010Z,2.10
2018-05-06T07:49:54.482Z,2.13
2018-05-06T07:50:57.004Z,2.00
2018-05-06T07:51:59.498Z,2.00
2018-05-06T07:53:02.085Z,2.23
2018-05-06T07:54:04.554Z,2.00
2018-05-06T07:55:07.138Z,2.50
2018-05-06T07:56:09.700Z,2.47
2018-05-06T07:57:12.200Z,2.30
2018-05-06T07:58:14.685Z,1.57
2018-05-06T07:59:17.190Z,2.00
2018-05-06T08:00:19.663Z,2.07
2018-05-06T08:01:22.168Z,1.90
2018-05-06T08:02:24.729Z,2.30
2018-05-06T08:03:27.217Z,2.17
2018-05-06T08:04:29.722Z,2.00
2018-05-06T08:05:32.203Z,2.03
2018-05-06T08:06:34.704Z,1.90
2018-05-06T08:07:37.176Z,2.23
2018-05-06T08:08:39.668Z,2.30
2018-05-06T08:09:42.157Z,2.07
2018-05-06T08:10:44.716Z,1.80
2018-05-06T08:11:47.202Z,2.00
2018-05-06T08:12:49.685Z,2.00
2018-05-06T08:13:52.173Z,2.00
2018-05-06T08:14:54.641Z,1.97
2018-05-06T08:15:57.122Z,1.93
2018-05-06T08:16:59.643Z,2.13
2018-05-06T08:18:02.144Z,1.83
2018-05-06T08:19:04.618Z,2.37
2018-05-06T08:20:07.091Z,1.87
2018-05-06T08:21:09.614Z,2.00
2018-05-06T08:22:12.109Z,2.23
2018-05-06T08:23:14.603Z,1.80
2018-05-06T08:24:17.112Z,1.70
2018-05-06T08:25:19.600Z,2.10
2018-05-06T08:26:22.119Z,1.70
2018-05-06T08:27:24.624Z,2.10
2018-05-06T08:28:27.108Z,2.13
2018-05-06T08:29:29.597Z,2.00
2018-05-06T08:30:32.109Z,2.37
2018-05-06T08:31:34.609Z,2.00
2018-05-06T08:32:37.157Z,2.00
2018-05-06T08:33:39.713Z,1.70
2018-05-06T08:34:42.272Z,2.10
2018-05-06T08:35:44.791Z,2.00
2018-05-06T08:36:47.270Z,1.90
2018-05-06T08:37:49.756Z,2.53
2018-05-06T08:38:52.234Z,1.90
2018-05-06T08:39:54.744Z,2.47
2018-05-06T08:40:57.267Z,2.20
2018-05-06T08:41:59.764Z,2.13
2018-05-06T08:43:02.303Z,2.10
2018-05-06T08:44:04.790Z,1.80
2018-05-06T08:45:07.292Z,2.20
2018-05-06T08:46:09.787Z,1.70
2018-05-06T08:47:12.257Z,2.30
2018-05-06T08:48:14.779Z,2.00
2018-05-06T08:49:17.272Z,2.50
2018-05-06T08:50:19.760Z,1.60
2018-05-06T08:51:22.270Z,2.20
2018-05-06T08:52:24.756Z,2.13
2018-05-06T08:53:27.264Z,2.23
2018-05-06T08:54:29.733Z,2.20
2018-05-06T08:55:32.239Z,2.00
2018-05-06T08:56:34.720Z,2.37
2018-05-06T08:57:37.226Z,1.90
2018-05-06T08:58:39.693Z,1.83
2018-05-06T08:59:42.220Z,1.63
2018-05-06T09:00:44.686Z,2.40
2018-05-06T09:01:47.198Z,1.80
2018-05-06T09:02:49.762Z,1.93
2018-05-06T09:03:52.320Z,1.60
2018-05-06T09:04:54.877Z,1.60
2018-05-06T09:05:57.441Z,2.00
2018-05-06T09:06:59.910Z,2.07
2018-05-06T09:08:02.408Z,2.10
2018-05-06T09:09:05.696Z,1.97
2018-05-06T09:10:08.201Z,2.00
2018-05-06T09:11:10.758Z,1.90
2018-05-06T09:12:13.178Z,1.93
2018-05-06T09:13:15.687Z,1.53
2018-05-06T09:14:18.188Z,1.80
2018-05-06T09:15:20.655Z,2.10
2018-05-06T09:16:23.121Z,1.77
2018-05-06T09:17:25.625Z,1.80
2018-05-06T09:18:28.135Z,1.87
2018-05-06T09:19:30.670Z,1.87
2018-05-06T09:20:33.159Z,1.67
2018-05-06T09:21:35.644Z,1.70
2018-05-06T09:22:38.194Z,1.90
2018-05-06T09:23:40.685Z,1.70
2018-05-06T09:24:43.215Z,2.50
2018-05-06T09:25:45.724Z,1.90
2018-05-06T09:26:48.230Z,2.00
2018-05-06T09:27:50.787Z,1.77
2018-05-06T09:28:53.353Z,2.37
2018-05-06T09:29:55.911Z,1.50
2018-05-06T09:30:58.470Z,1.87
2018-05-06T09:32:00.961Z,2.03
2018-05-06T09:33:03.425Z,1.70
2018-05-06T09:34:05.943Z,1.83
2018-05-06T09:35:08.420Z,1.60
2018-05-06T09:36:10.905Z,1.97
2018-05-06T09:37:13.386Z,1.90
2018-05-06T09:38:15.874Z,1.60
2018-05-06T09:39:18.385Z,1.60
2018-05-06T09:40:20.865Z,2.20
2018-05-06T09:41:23.362Z,1.40
2018-05-06T09:42:25.956Z,1.80
2018-05-06T09:43:28.868Z,2.10
2018-05-06T09:44:31.855Z,2.30
2018-05-06T09:45:34.414Z,1.80
2018-05-06T09:46:37.290Z,1.80
2018-05-06T09:47:41.039Z,1.80
2018-05-06T09:48:43.887Z,1.50
2018-05-06T09:49:46.399Z,1.43
2018-05-06T09:50:48.885Z,1.67
2018-05-06T09:51:51.397Z,1.67
2018-05-06T09:52:53.879Z,1.73
2018-05-06T09:53:56.389Z,1.67
2018-05-06T09:54:58.878Z,1.97
2018-05-06T09:56:01.409Z,2.03
2018-05-06T09:57:03.909Z,1.80
2018-05-06T09:58:06.439Z,1.63
2018-05-06T09:59:08.915Z,1.63
2018-05-06T10:00:11.404Z,1.60
2018-05-06T10:01:14.003Z,1.77
2018-05-06T10:02:16.508Z,1.70
2018-05-06T10:03:19.019Z,1.60
2018-05-06T10:04:21.513Z,1.87
2018-05-06T10:05:24.015Z,1.70
2018-05-06T10:06:26.520Z,1.90
2018-05-06T10:07:29.357Z,1.50
2018-05-06T10:08:31.887Z,1.80
2018-05-06T10:09:34.523Z,1.77
2018-05-06T10:10:37.045Z,1.73
2018-05-06T10:11:39.522Z,1.80
2018-05-06T10:12:42.029Z,1.80
2018-05-06T10:13:44.513Z,1.50
2018-05-06T10:14:47.065Z,1.80
2018-05-06T10:15:49.619Z,1.97
2018-05-06T10:16:52.071Z,1.80
2018-05-06T10:17:54.596Z,1.80
2018-05-06T10:18:57.162Z,1.70
2018-05-06T10:19:59.719Z,1.80
2018-05-06T10:21:02.211Z,1.63
2018-05-06T10:22:04.755Z,2.00
2018-05-06T10:23:07.284Z,1.57
2018-05-06T10:24:09.772Z,1.87
2018-05-06T10:25:12.271Z,1.80
2018-05-06T10:26:14.803Z,1.87
2018-05-06T10:27:17.320Z,1.80
2018-05-06T10:28:19.827Z,1.63
2018-05-06T10:29:22.316Z,1.83
2018-05-06T10:30:24.821Z,1.50
2018-05-06T10:31:27.306Z,1.67
2018-05-06T10:32:29.824Z,1.50
2018-05-06T10:33:32.352Z,1.67
2018-05-06T10:34:34.853Z,1.70
2018-05-06T10:35:37.359Z,1.73
2018-05-06T10:36:39.840Z,1.63
2018-05-06T10:37:42.344Z,1.73
2018-05-06T10:38:44.837Z,1.60
2018-05-06T10:39:47.315Z,1.47
2018-05-06T10:40:49.896Z,1.50
2018-05-06T10:41:52.404Z,1.50
2018-05-06T10:42:54.898Z,1.67
2018-05-06T10:43:57.431Z,2.00
2018-05-06T10:44:59.927Z,1.73
2018-05-06T10:46:02.427Z,1.80
2018-05-06T10:47:04.969Z,1.97
2018-05-06T10:48:07.445Z,1.70
2018-05-06T10:49:10.001Z,1.33
2018-05-06T10:50:12.462Z,2.00
2018-05-06T10:51:14.969Z,1.80
2018-05-06T10:52:17.473Z,1.60
2018-05-06T10:53:20.003Z,1.30
2018-05-06T10:54:22.472Z,1.80
2018-05-06T10:55:25.116Z,1.70
2018-05-06T10:56:27.722Z,1.60
2018-05-06T10:57:30.397Z,1.80
2018-05-06T10:58:32.878Z,2.00
2018-05-06T10:59:35.462Z,1.80
2018-05-06T11:00:37.948Z,1.73
2018-05-06T11:01:40.446Z,1.80
2018-05-06T11:02:42.941Z,1.70
2018-05-06T11:03:45.443Z,1.60
2018-05-06T11:04:47.929Z,1.40
2018-05-06T11:05:50.424Z,1.87
2018-05-06T11:06:52.950Z,1.90
2018-05-06T11:07:55.422Z,1.40
2018-05-06T11:08:57.892Z,1.50
2018-05-06T11:10:00.362Z,1.63
2018-05-06T11:11:02.855Z,1.73
2018-05-06T11:12:05.368Z,1.70
2018-05-06T11:13:07.930Z,1.73
2018-05-06T11:14:10.432Z,1.50
2018-05-06T11:15:12.971Z,1.87
2018-05-06T11:16:15.493Z,1.50
2018-05-06T11:17:18.066Z,1.70
2018-05-06T11:18:20.567Z,1.33
2018-05-06T11:19:23.067Z,1.80
2018-05-06T11:20:25.552Z,2.20
2018-05-06T11:21:28.304Z,1.73
2018-05-06T11:22:30.804Z,1.57
2018-05-06T11:23:33.321Z,1.70
2018-05-06T11:24:35.824Z,1.60
2018-05-06T11:25:38.340Z,1.50
2018-05-06T11:26:40.806Z,1.70
2018-05-06T11:27:43.361Z,1.40
2018-05-06T11:28:45.873Z,1.60
2018-05-06T11:29:48.361Z,1.40
2018-05-06T11:30:50.852Z,1.63
2018-05-06T11:31:53.322Z,1.63
2018-05-06T11:32:55.844Z,1.77
2018-05-06T11:33:58.311Z,1.90
2018-05-06T11:35:00.796Z,1.50
2018-05-06T11:36:03.337Z,1.60
2018-05-06T11:37:05.806Z,1.40
2018-05-06T11:38:08.274Z,1.63
2018-05-06T11:39:10.800Z,1.60
2018-05-06T11:40:13.305Z,1.83
2018-05-06T11:41:15.803Z,1.63
2018-05-06T11:42:18.381Z,1.70
2018-05-06T11:43:21.042Z,1.80
2018-05-06T11:44:23.536Z,1.63
2018-05-06T11:45:26.023Z,1.57
2018-05-06T11:46:28.744Z,1.37
2018-05-06T11:47:31.240Z,1.83
2018-05-06T11:48:33.744Z,2.00
2018-05-06T11:49:36.277Z,1.60
2018-05-06T11:50:38.783Z,1.67
2018-05-06T11:51:41.262Z,1.40
2018-05-06T11:52:43.729Z,1.73
2018-05-06T11:53:46.199Z,1.50
2018-05-06T11:54:48.876Z,1.77
2018-05-06T11:55:51.362Z,1.57
2018-05-06T11:56:53.864Z,1.53
2018-05-06T11:57:56.368Z,1.50
2018-05-06T11:58:58.848Z,1.53
2018-05-06T12:00:01.344Z,1.70
2018-05-06T12:01:03.828Z,1.57
2018-05-06T12:02:06.711Z,1.40
2018-05-06T12:03:09.576Z,1.67
2018-05-06T12:04:12.489Z,1.63
2018-05-06T12:05:15.013Z,1.70
2018-05-06T12:06:17.499Z,1.80
2018-05-06T12:07:20.026Z,1.70
2018-05-06T12:08:22.513Z,1.77
2018-05-06T12:09:25.046Z,1.30
2018-05-06T12:10:27.606Z,1.40
2018-05-06T12:11:30.090Z,1.60
2018-05-06T12:12:32.566Z,1.50
2018-05-06T12:13:35.079Z,1.40
2018-05-06T12:14:37.571Z,1.60
2018-05-06T12:15:40.151Z,1.40
2018-05-06T12:16:42.631Z,1.37
2018-05-06T12:17:45.103Z,1.70
2018-05-06T12:18:47.604Z,1.70
2018-05-06T12:19:50.112Z,1.70
2018-05-06T12:20:52.596Z,1.40
2018-05-06T12:21:55.107Z,1.73
2018-05-06T12:22:57.582Z,1.87
2018-05-06T12:24:00.135Z,1.53
2018-05-06T12:25:02.919Z,1.63
2018-05-06T12:26:05.798Z,1.60
2018-05-06T12:27:08.362Z,1.70
2018-05-06T12:28:10.867Z,1.80
2018-05-06T12:29:13.393Z,1.77
2018-05-06T12:30:17.470Z,1.60
2018-05-06T12:31:19.956Z,1.60
2018-05-06T12:32:22.465Z,1.60
2018-05-06T12:33:24.953Z,1.47
2018-05-06T12:34:27.435Z,1.50
2018-05-06T12:35:29.940Z,1.53
2018-05-06T12:36:32.411Z,1.30
2018-05-06T12:37:34.910Z,1.50
2018-05-06T12:38:37.412Z,1.83
2018-05-06T12:39:39.917Z,1.37
2018-05-06T12:40:42.446Z,1.60
2018-05-06T12:41:44.986Z,1.80
2018-05-06T12:42:47.582Z,1.60
2018-05-06T12:43:50.098Z,1.60
2018-05-06T12:44:52.704Z,1.60
2018-05-06T12:45:55.264Z,1.20
2018-05-06T12:46:57.926Z,1.63
2018-05-06T12:48:00.466Z,1.50
2018-05-06T12:49:03.044Z,1.60
2018-05-06T12:50:05.530Z,1.83
2018-05-06T12:51:08.021Z,1.40
2018-05-06T12:52:10.587Z,1.70
2018-05-06T12:53:13.084Z,1.73
2018-05-06T12:54:15.610Z,1.80
2018-05-06T12:55:18.174Z,1.60
2018-05-06T12:56:20.650Z,1.33
2018-05-06T12:57:23.172Z,1.60
2018-05-06T12:58:25.913Z,1.47
2018-05-06T12:59:28.439Z,1.60
2018-05-06T13:00:30.952Z,1.70
2018-05-06T13:01:33.453Z,1.70
2018-05-06T13:02:35.950Z,1.93
2018-05-06T13:03:38.441Z,1.63
2018-05-06T13:04:41.043Z,1.50
2018-05-06T13:05:44.397Z,1.53
2018-05-06T13:06:47.100Z,1.53
2018-05-06T13:07:52.121Z,1.57
2018-05-06T13:08:54.991Z,1.70
2018-05-06T13:09:57.558Z,1.53
2018-05-06T13:11:00.088Z,1.70
2018-05-06T13:12:02.627Z,1.50
2018-05-06T13:13:05.150Z,1.33
2018-05-06T13:14:07.663Z,1.50
2018-05-06T13:15:10.185Z,1.80
2018-05-06T13:16:12.696Z,1.40
2018-05-06T13:17:15.189Z,1.70
2018-05-06T13:18:17.780Z,1.23
2018-05-06T13:19:20.284Z,1.50
2018-05-06T13:20:22.841Z,1.70
2018-05-06T13:21:25.376Z,1.40
2018-05-06T13:22:27.885Z,1.30
2018-05-06T13:23:30.373Z,1.57
2018-05-06T13:24:32.871Z,1.60
2018-05-06T13:25:35.346Z,1.40
2018-05-06T13:26:37.818Z,1.67
2018-05-06T13:27:40.302Z,1.80
2018-05-06T13:28:42.785Z,1.30
2018-05-06T13:29:45.280Z,1.73
2018-05-06T13:30:47.803Z,1.43
2018-05-06T13:31:50.289Z,1.80
2018-05-06T13:32:52.785Z,1.40
2018-05-06T13:33:55.273Z,1.40
2018-05-06T13:34:57.745Z,1.60
2018-05-06T13:36:00.373Z,1.53
2018-05-06T13:37:03.386Z,1.50
2018-05-06T13:38:06.968Z,1.40
2018-05-06T13:39:09.750Z,1.40
2018-05-06T13:40:12.260Z,1.60
2018-05-06T13:41:18.370Z,1.53
2018-05-06T13:42:23.177Z,1.70
2018-05-06T13:43:26.818Z,1.30
2018-05-06T13:44:29.382Z,1.50
2018-05-06T13:45:33.316Z,1.43
2018-05-06T13:46:37.064Z,1.70
2018-05-06T13:47:41.109Z,1.70
2018-05-06T13:48:45.071Z,1.60
2018-05-06T13:49:47.708Z,2.50
2018-05-06T13:50:50.164Z,2.10
2018-05-06T13:51:52.765Z,1.90
2018-05-06T13:52:55.275Z,2.20
2018-05-06T13:53:57.898Z,1.80
2018-05-06T13:55:00.680Z,1.90
2018-05-06T13:56:03.584Z,2.03